Time;durP1;ratioP1;P1;durP2;ratioP2;P2;SDS_P1;SDS_P2;PMS_P1;PMS_P2;Temp;Humidity;BMP_temperature;BMP_pressure;BME280_temperature;BME280_humidity;BME280_pressure;Samples;Min_cycle;Max_cycle;Signal;HPM_P1;HPM_P2
2021/06/20 00:00:19;;;;;;;9.13;8.33;;;20.50;99.90;;;;;;5121511;27;20211;-52
2021/06/20 00:02:50;;;;;;;9.20;8.50;;;20.50;99.90;;;;;;5104363;27;20236;-52
2021/06/20 00:05:19;;;;;;;8.97;8.10;;;20.40;99.90;;;;;;5103071;28;20666;-50
2021/06/20 00:07:46;;;;;;;8.17;7.47;;;20.40;99.90;;;;;;5102638;28;20181;-50
2021/06/20 00:10:15;;;;;;;10.57;9.57;;;20.40;99.90;;;;;;5103785;27;20197;-54
2021/06/20 00:12:42;;;;;;;9.07;8.27;;;20.40;99.90;;;;;;5091814;27;20590;-51
2021/06/20 00:15:12;;;;;;;9.60;8.60;;;20.40;99.90;;;;;;5119284;27;20226;-51
2021/06/20 00:17:40;;;;;;;8.67;7.80;;;20.40;99.90;;;;;;5110192;27;20201;-51
2021/06/20 00:20:10;;;;;;;9.10;7.63;;;20.40;99.90;;;;;;5103534;28;20193;-50
2021/06/20 00:22:36;;;;;;;8.60;7.60;;;20.40;99.90;;;;;;5099642;28;20977;-50
2021/06/20 00:25:04;;;;;;;8.20;7.40;;;20.40;99.90;;;;;;5103697;28;20195;-48
2021/06/20 00:27:31;;;;;;;8.70;7.80;;;20.40;99.90;;;;;;5089469;27;20966;-50
2021/06/20 00:29:58;;;;;;;9.37;8.47;;;20.40;99.90;;;;;;5119562;27;20193;-47
2021/06/20 00:32:24;;;;;;;9.63;8.67;;;20.40;99.90;;;;;;5118608;27;20224;-51
2021/06/20 00:34:53;;;;;;;9.60;8.57;;;20.40;99.90;;;;;;5091356;27;20213;-50
2021/06/20 00:37:20;;;;;;;9.50;8.67;;;20.30;99.90;;;;;;5111802;27;20216;-46
2021/06/20 00:39:46;;;;;;;9.90;9.00;;;20.30;99.90;;;;;;5123448;27;20276;-47
2021/06/20 00:42:13;;;;;;;9.67;8.80;;;20.30;99.90;;;;;;5105293;27;20282;-50
2021/06/20 00:44:46;;;;;;;9.63;8.70;;;20.20;99.90;;;;;;5100759;27;20658;-48
2021/06/20 00:47:13;;;;;;;10.97;9.97;;;20.30;99.90;;;;;;5118090;27;20845;-47
2021/06/20 00:49:40;;;;;;;10.70;8.83;;;20.20;99.90;;;;;;5111292;27;20208;-52
2021/06/20 00:52:08;;;;;;;11.00;9.90;;;20.10;99.90;;;;;;5099612;28;20879;-54
2021/06/20 00:54:35;;;;;;;12.43;11.17;;;20.10;99.90;;;;;;5103467;28;20205;-49
2021/06/20 00:57:02;;;;;;;14.17;11.47;;;20.00;99.90;;;;;;5120758;27;20571;-52
2021/06/20 00:59:30;;;;;;;12.10;10.90;;;20.00;99.90;;;;;;5099443;27;20205;-47
2021/06/20 01:01:56;;;;;;;12.93;10.83;;;20.00;99.90;;;;;;5117802;27;20223;-50
2021/06/20 01:04:23;;;;;;;11.93;10.80;;;20.00;99.90;;;;;;5110943;27;20197;-49
2021/06/20 01:06:50;;;;;;;14.40;13.03;;;19.90;99.90;;;;;;5101820;28;20280;-50
2021/06/20 01:09:18;;;;;;;17.50;15.63;;;19.90;99.90;;;;;;5119564;27;20215;-48
2021/06/20 01:11:44;;;;;;;18.47;16.63;;;19.90;99.90;;;;;;5123771;27;20207;-51
2021/06/20 01:14:12;;;;;;;16.47;14.67;;;19.80;99.90;;;;;;5099397;27;20797;-47
2021/06/20 01:16:39;;;;;;;20.67;16.20;;;19.80;99.90;;;;;;5123046;27;20208;-48
2021/06/20 01:19:05;;;;;;;19.60;17.27;;;19.80;99.90;;;;;;5104785;27;20201;-53
2021/06/20 01:21:32;;;;;;;22.47;17.37;;;19.80;99.90;;;;;;5102341;28;20861;-47
2021/06/20 01:24:00;;;;;;;19.63;17.57;;;19.80;99.90;;;;;;5101091;28;20193;-52
2021/06/20 01:26:27;;;;;;;20.20;17.17;;;19.80;99.90;;;;;;5102365;28;20895;-50
2021/06/20 01:29:02;;;;;;;19.43;17.30;;;19.70;99.90;;;;;;5108032;27;20211;-52
2021/06/20 01:31:31;;;;;;;24.27;18.30;;;19.70;99.90;;;;;;5112934;28;20228;-51
2021/06/20 01:33:58;;;;;;;21.63;17.47;;;19.70;99.90;;;;;;5121882;28;20271;-54
2021/06/20 01:36:25;;;;;;;19.37;17.27;;;19.70;99.90;;;;;;5102665;28;20215;-52
2021/06/20 01:38:51;;;;;;;22.90;17.77;;;19.70;99.90;;;;;;5102325;28;20189;-52
2021/06/20 01:41:19;;;;;;;22.10;17.87;;;19.70;99.90;;;;;;5115407;27;20212;-53
2021/06/20 01:43:46;;;;;;;17.57;14.97;;;19.70;99.90;;;;;;5112498;27;20212;-50
2021/06/20 01:46:13;;;;;;;21.17;15.63;;;19.60;99.90;;;;;;5116218;27;20193;-50
2021/06/20 01:48:39;;;;;;;18.53;15.37;;;19.70;99.90;;;;;;5121750;27;20192;-53
2021/06/20 01:51:06;;;;;;;18.40;16.40;;;19.70;99.90;;;;;;5111684;27;20197;-54
2021/06/20 01:53:33;;;;;;;19.47;15.97;;;19.70;99.90;;;;;;5106939;27;20228;-49
2021/06/20 01:56:00;;;;;;;19.23;16.00;;;19.60;99.90;;;;;;5104686;28;20679;-52
2021/06/20 01:58:28;;;;;;;20.03;17.80;;;19.60;99.90;;;;;;5108788;27;20231;-52
2021/06/20 02:00:56;;;;;;;17.40;15.63;;;19.60;99.90;;;;;;5112339;27;20261;-54
2021/06/20 02:03:27;;;;;;;19.53;17.20;;;19.60;99.90;;;;;;5124664;27;20272;-52
2021/06/20 02:05:57;;;;;;;19.20;16.40;;;19.50;99.90;;;;;;5123398;27;20241;-53
2021/06/20 02:08:24;;;;;;;19.80;16.60;;;19.50;99.90;;;;;;5102425;27;20193;-49
2021/06/20 02:10:52;;;;;;;19.63;16.63;;;19.50;99.90;;;;;;5105538;28;20190;-53
2021/06/20 02:13:23;;;;;;;17.27;14.83;;;19.50;99.90;;;;;;5122749;27;20670;-49
2021/06/20 02:15:51;;;;;;;18.17;16.17;;;19.50;99.90;;;;;;5093756;27;20678;-51
2021/06/20 02:18:18;;;;;;;16.93;15.10;;;19.50;99.90;;;;;;5122668;27;20185;-50
2021/06/20 02:20:44;;;;;;;19.80;15.90;;;19.40;99.90;;;;;;5125808;27;20189;-50
2021/06/20 02:23:11;;;;;;;17.87;15.97;;;19.40;99.90;;;;;;5106051;27;20220;-52
2021/06/20 02:25:38;;;;;;;19.60;16.97;;;19.40;99.90;;;;;;5106050;28;20195;-52
2021/06/20 02:28:05;;;;;;;23.30;17.60;;;19.40;99.90;;;;;;5116812;27;20283;-51
2021/06/20 02:30:32;;;;;;;18.87;16.80;;;19.40;99.90;;;;;;5104201;27;20661;-50
2021/06/20 02:33:00;;;;;;;20.27;18.17;;;19.40;99.90;;;;;;5116710;27;20744;-53
2021/06/20 02:35:27;;;;;;;18.63;16.63;;;19.40;99.90;;;;;;5103344;28;20197;-52
2021/06/20 02:37:55;;;;;;;19.03;15.57;;;19.40;99.90;;;;;;5101965;28;20235;-54
2021/06/20 02:40:22;;;;;;;18.87;17.03;;;19.40;99.90;;;;;;5100614;28;20193;-48
2021/06/20 02:42:49;;;;;;;18.97;16.97;;;19.40;99.90;;;;;;5118414;27;20227;-53
2021/06/20 02:45:19;;;;;;;22.77;16.67;;;19.40;99.90;;;;;;5120397;28;20216;-48
2021/06/20 02:47:46;;;;;;;20.83;16.80;;;19.40;99.90;;;;;;5110994;27;20200;-47
2021/06/20 02:50:16;;;;;;;20.20;17.13;;;19.40;99.90;;;;;;5119504;27;20199;-51
2021/06/20 02:52:43;;;;;;;22.03;16.60;;;19.40;99.90;;;;;;5109070;28;20220;-49
2021/06/20 02:55:10;;;;;;;22.53;17.57;;;19.40;99.90;;;;;;5095671;28;20193;-47
2021/06/20 02:57:37;;;;;;;20.53;17.33;;;19.40;99.90;;;;;;5115406;28;20209;-51
2021/06/20 03:00:05;;;;;;;20.37;17.27;;;19.40;99.90;;;;;;5120926;28;20197;-54
2021/06/20 03:02:32;;;;;;;18.97;16.90;;;19.40;99.90;;;;;;5111530;28;20228;-52
2021/06/20 03:04:59;;;;;;;19.77;17.57;;;19.40;99.90;;;;;;5115539;28;20203;-51
2021/06/20 03:07:28;;;;;;;20.37;17.37;;;19.40;99.90;;;;;;5102657;28;20410;-49
2021/06/20 03:09:55;;;;;;;19.23;17.10;;;19.40;99.90;;;;;;5097449;28;20573;-52
2021/06/20 03:12:22;;;;;;;20.03;17.07;;;19.40;99.90;;;;;;5113519;28;20208;-49
2021/06/20 03:14:49;;;;;;;21.30;17.90;;;19.40;99.90;;;;;;5123357;28;20282;-50
2021/06/20 03:17:16;;;;;;;20.97;18.73;;;19.40;99.90;;;;;;5120204;27;20212;-50
2021/06/20 03:19:44;;;;;;;21.77;15.93;;;19.40;99.90;;;;;;5108843;28;20196;-52
2021/06/20 03:22:11;;;;;;;20.10;17.90;;;19.40;99.90;;;;;;5120650;27;21006;-51
2021/06/20 03:24:41;;;;;;;22.27;18.13;;;19.40;99.90;;;;;;5115895;28;20204;-54
2021/06/20 03:27:09;;;;;;;21.30;18.27;;;19.40;99.90;;;;;;5120402;27;20185;-49
2021/06/20 03:29:36;;;;;;;18.33;16.37;;;19.40;99.90;;;;;;5124002;28;20191;-47
2021/06/20 03:32:04;;;;;;;20.43;17.00;;;19.50;99.90;;;;;;5120110;27;48054;-54
2021/06/20 03:34:31;;;;;;;23.93;17.80;;;19.50;99.90;;;;;;5110551;27;20201;-47
2021/06/20 03:36:58;;;;;;;24.07;17.13;;;19.50;99.90;;;;;;5122852;27;20209;-53
2021/06/20 03:39:24;;;;;;;19.77;16.20;;;19.50;99.90;;;;;;5104138;27;20266;-51
2021/06/20 03:41:53;;;;;;;20.73;17.13;;;19.50;99.90;;;;;;5115907;27;20213;-51
2021/06/20 03:44:19;;;;;;;18.87;16.97;;;19.50;99.90;;;;;;5119274;27;20185;-51
2021/06/20 03:46:46;;;;;;;16.77;14.53;;;19.50;99.90;;;;;;5117235;27;20272;-49
2021/06/20 03:49:13;;;;;;;17.40;15.70;;;19.60;99.90;;;;;;5105923;27;20208;-51
2021/06/20 03:51:39;;;;;;;18.87;16.70;;;19.60;99.90;;;;;;5125234;27;20212;-53
2021/06/20 03:54:06;;;;;;;21.03;17.60;;;19.60;99.90;;;;;;5120677;27;20212;-54
2021/06/20 03:56:33;;;;;;;18.63;15.63;;;19.60;99.90;;;;;;5106767;27;20228;-52
2021/06/20 03:59:01;;;;;;;19.20;15.77;;;19.70;99.90;;;;;;5122330;27;20205;-53
2021/06/20 04:01:28;;;;;;;17.87;15.53;;;19.70;99.90;;;;;;5102377;28;20209;-53
2021/06/20 04:03:54;;;;;;;15.17;13.20;;;19.70;99.90;;;;;;5103184;28;20224;-51
2021/06/20 04:06:21;;;;;;;15.80;14.30;;;19.70;99.90;;;;;;5100608;27;20867;-51
2021/06/20 04:08:48;;;;;;;17.63;14.80;;;19.80;99.90;;;;;;5124301;27;20266;-52
2021/06/20 04:11:14;;;;;;;16.37;14.67;;;19.80;99.90;;;;;;5111569;27;20228;-52
2021/06/20 04:13:41;;;;;;;15.70;14.23;;;19.80;99.90;;;;;;5104462;28;20536;-48
2021/06/20 04:16:09;;;;;;;13.77;12.57;;;19.90;99.90;;;;;;5116204;27;20196;-54
2021/06/20 04:18:35;;;;;;;16.73;13.23;;;19.90;99.90;;;;;;5123676;27;20208;-50
2021/06/20 04:21:02;;;;;;;14.47;12.97;;;19.90;99.90;;;;;;5103598;27;20208;-52
2021/06/20 04:23:29;;;;;;;13.87;12.50;;;20.00;99.90;;;;;;5123740;27;20553;-52
2021/06/20 04:25:55;;;;;;;13.87;12.57;;;20.00;99.90;;;;;;5120352;27;20188;-54
2021/06/20 04:28:22;;;;;;;13.97;12.67;;;20.00;99.90;;;;;;5113123;27;20188;-51
2021/06/20 04:30:53;;;;;;;16.03;12.33;;;20.10;99.90;;;;;;5123569;27;20207;-52
2021/06/20 04:33:22;;;;;;;12.90;11.70;;;20.20;99.90;;;;;;5121735;27;20197;-49
2021/06/20 04:35:49;;;;;;;14.43;11.80;;;20.30;99.90;;;;;;5110264;27;20204;-52
2021/06/20 04:38:16;;;;;;;12.23;11.17;;;20.40;99.90;;;;;;5119572;27;20205;-50
2021/06/20 04:40:43;;;;;;;12.47;11.23;;;20.60;99.90;;;;;;5123758;27;20193;-50
2021/06/20 04:43:11;;;;;;;12.67;11.57;;;20.60;99.90;;;;;;5103128;27;20220;-50
2021/06/20 04:45:38;;;;;;;14.13;12.83;;;20.70;99.90;;;;;;5116221;27;20188;-52
2021/06/20 04:48:06;;;;;;;13.50;12.30;;;20.80;99.90;;;;;;5119975;27;20196;-53
2021/06/20 04:50:34;;;;;;;13.93;12.67;;;20.80;99.90;;;;;;5108771;27;20208;-47
2021/06/20 04:53:00;;;;;;;15.07;12.53;;;20.90;99.90;;;;;;5121513;27;20705;-52
2021/06/20 04:55:27;;;;;;;12.53;11.43;;;20.90;99.90;;;;;;5121860;27;20195;-48
2021/06/20 04:57:54;;;;;;;11.87;10.77;;;20.90;99.90;;;;;;5108066;27;20663;-53
2021/06/20 05:00:21;;;;;;;13.43;10.23;;;21.00;99.90;;;;;;5120321;27;20812;-47
2021/06/20 05:02:47;;;;;;;10.93;9.90;;;20.90;99.90;;;;;;5123498;27;20231;-52
2021/06/20 05:05:14;;;;;;;13.87;10.47;;;21.00;99.90;;;;;;5118336;27;20207;-47
2021/06/20 05:07:42;;;;;;;11.17;8.83;;;20.90;99.90;;;;;;5102226;27;20205;-51
2021/06/20 05:10:10;;;;;;;10.93;9.17;;;20.90;99.90;;;;;;5113448;27;20208;-50
2021/06/20 05:12:37;;;;;;;10.90;9.37;;;20.90;99.90;;;;;;5122970;27;20216;-51
2021/06/20 05:15:06;;;;;;;9.53;8.67;;;20.80;99.90;;;;;;5112574;27;20700;-50
2021/06/20 05:17:33;;;;;;;9.27;8.53;;;20.80;99.90;;;;;;5123273;27;20216;-51
2021/06/20 05:20:00;;;;;;;8.97;8.07;;;20.70;99.90;;;;;;5118397;27;20197;-50
2021/06/20 05:22:26;;;;;;;8.87;7.40;;;20.70;99.90;;;;;;5100682;27;20216;-53
2021/06/20 05:24:54;;;;;;;9.37;8.20;;;20.60;99.90;;;;;;5121836;27;20192;-48
2021/06/20 05:27:21;;;;;;;8.90;8.00;;;20.60;99.90;;;;;;5121293;28;20283;-52
2021/06/20 05:29:47;;;;;;;9.00;8.00;;;20.50;99.90;;;;;;5108865;28;20188;-52
2021/06/20 05:32:14;;;;;;;8.43;7.73;;;20.50;99.90;;;;;;5122519;27;20600;-52
2021/06/20 05:34:41;;;;;;;10.53;8.50;;;20.40;99.90;;;;;;5104630;28;20822;-47
2021/06/20 05:37:08;;;;;;;11.83;7.70;;;20.40;99.90;;;;;;5114845;27;20212;-51
2021/06/20 05:39:34;;;;;;;7.93;7.13;;;20.30;99.90;;;;;;5104880;27;20190;-49
2021/06/20 05:42:03;;;;;;;8.80;6.27;;;20.30;99.90;;;;;;5129525;27;20216;-48
2021/06/20 05:44:30;;;;;;;6.87;6.27;;;20.20;99.90;;;;;;5104206;27;21668;-51
2021/06/20 05:46:56;;;;;;;6.13;5.50;;;20.20;99.90;;;;;;5113240;28;20193;-52
2021/06/20 05:49:23;;;;;;;8.33;5.57;;;20.10;99.90;;;;;;5113727;28;20696;-51
2021/06/20 05:51:50;;;;;;;6.20;5.60;;;20.10;99.90;;;;;;5122909;28;20216;-47
2021/06/20 05:54:16;;;;;;;6.70;5.77;;;20.10;99.90;;;;;;5104248;27;20226;-51
2021/06/20 05:56:43;;;;;;;5.30;4.80;;;20.00;99.90;;;;;;5117389;28;20201;-48
2021/06/20 05:59:11;;;;;;;5.60;3.90;;;19.90;99.90;;;;;;5115537;28;20539;-54
2021/06/20 06:01:38;;;;;;;5.57;4.30;;;19.80;99.90;;;;;;5101302;28;20231;-51
2021/06/20 06:04:05;;;;;;;7.20;4.13;;;19.70;99.90;;;;;;5100731;28;20284;-53
2021/06/20 06:06:32;;;;;;;6.37;3.90;;;19.70;99.90;;;;;;5099600;28;20185;-51
2021/06/20 06:08:59;;;;;;;5.47;3.43;;;19.60;99.90;;;;;;5096644;28;20219;-54
2021/06/20 06:11:26;;;;;;;4.27;3.50;;;19.60;99.90;;;;;;5092716;28;20217;-47
2021/06/20 06:13:52;;;;;;;7.30;3.37;;;19.50;99.90;;;;;;5102835;28;20284;-50
2021/06/20 06:16:20;;;;;;;5.33;3.83;;;19.50;99.90;;;;;;5094691;28;20205;-52
2021/06/20 06:18:47;;;;;;;3.17;2.80;;;19.50;99.90;;;;;;5121322;28;20224;-52
2021/06/20 06:21:14;;;;;;;4.07;2.80;;;19.50;99.90;;;;;;5107485;28;20217;-53
2021/06/20 06:23:40;;;;;;;5.30;2.70;;;19.50;99.90;;;;;;5102894;28;20566;-47
2021/06/20 06:26:07;;;;;;;3.80;2.90;;;19.40;99.90;;;;;;5107159;27;20287;-51
2021/06/20 06:28:34;;;;;;;4.20;2.63;;;19.40;99.90;;;;;;5125300;27;20215;-47
2021/06/20 06:31:01;;;;;;;4.67;2.77;;;19.40;99.90;;;;;;5124579;27;20197;-50
2021/06/20 06:33:29;;;;;;;4.10;2.60;;;19.40;99.90;;;;;;5095746;27;20193;-50
2021/06/20 06:35:56;;;;;;;6.47;2.67;;;19.40;99.90;;;;;;5105984;28;20865;-51
2021/06/20 06:38:23;;;;;;;5.93;2.90;;;19.40;99.90;;;;;;5102605;28;20224;-49
2021/06/20 06:40:50;;;;;;;5.13;3.00;;;19.40;99.90;;;;;;5094910;27;20201;-53
2021/06/20 06:43:17;;;;;;;4.20;2.30;;;19.40;99.90;;;;;;5119631;27;20886;-46
2021/06/20 06:45:43;;;;;;;4.43;2.90;;;19.40;99.90;;;;;;5125452;27;20191;-46
2021/06/20 06:48:10;;;;;;;5.37;2.37;;;19.50;99.90;;;;;;5104130;27;20691;-52
2021/06/20 06:50:38;;;;;;;3.60;2.80;;;19.50;99.90;;;;;;5103832;27;20278;-51
2021/06/20 06:53:05;;;;;;;4.97;2.77;;;19.50;99.90;;;;;;5103361;28;20219;-52
2021/06/20 06:55:32;;;;;;;7.77;3.03;;;19.60;99.90;;;;;;5100491;28;20193;-50
2021/06/20 06:58:01;;;;;;;5.73;2.87;;;19.70;99.90;;;;;;5098175;27;20218;-51
2021/06/20 07:00:27;;;;;;;5.47;3.10;;;19.70;99.90;;;;;;5113539;27;20189;-47
2021/06/20 07:02:54;;;;;;;5.20;2.93;;;19.90;99.90;;;;;;5112497;27;20255;-48
2021/06/20 07:05:21;;;;;;;7.20;3.00;;;20.00;99.90;;;;;;5113535;27;20199;-46
2021/06/20 07:07:49;;;;;;;4.90;2.87;;;20.10;99.90;;;;;;5115438;27;20262;-49
2021/06/20 07:10:16;;;;;;;7.43;3.40;;;20.30;99.90;;;;;;5105951;27;20200;-47
2021/06/20 07:12:43;;;;;;;8.37;3.30;;;20.30;99.90;;;;;;5104347;27;20591;-50
2021/06/20 07:15:11;;;;;;;4.37;3.20;;;20.40;99.90;;;;;;5125016;27;20208;-48
2021/06/20 07:17:38;;;;;;;3.77;3.30;;;20.50;99.90;;;;;;5140193;27;20219;-50
2021/06/20 07:20:08;;;;;;;4.80;3.17;;;20.50;99.90;;;;;;5105995;27;20208;-52
2021/06/20 07:22:36;;;;;;;3.40;2.93;;;20.60;99.90;;;;;;5124354;27;20221;-47
2021/06/20 07:25:05;;;;;;;6.87;3.40;;;20.70;99.90;;;;;;5099892;27;20209;-52
2021/06/20 07:27:34;;;;;;;7.27;2.93;;;20.70;99.90;;;;;;5097709;27;20201;-50
2021/06/20 07:30:01;;;;;;;7.40;4.17;;;20.70;99.90;;;;;;5119177;27;20209;-51
2021/06/20 07:32:28;;;;;;;5.03;3.40;;;20.70;99.90;;;;;;5099027;28;20225;-49
2021/06/20 07:34:54;;;;;;;5.07;3.77;;;20.80;99.90;;;;;;5099301;27;20220;-48
2021/06/20 07:37:21;;;;;;;7.37;3.60;;;20.90;99.90;;;;;;5100130;28;20293;-48
2021/06/20 07:39:47;;;;;;;6.47;3.70;;;21.00;99.90;;;;;;5104723;27;20204;-51
2021/06/20 07:42:15;;;;;;;6.57;3.50;;;21.20;99.90;;;;;;5103201;27;20288;-54
2021/06/20 07:44:42;;;;;;;8.00;4.07;;;21.30;99.90;;;;;;5126766;27;20199;-46
2021/06/20 07:47:09;;;;;;;7.77;3.90;;;21.40;99.90;;;;;;5115667;27;20209;-50
2021/06/20 07:49:35;;;;;;;7.67;3.23;;;21.50;99.90;;;;;;5106698;27;20193;-48
2021/06/20 07:52:02;;;;;;;6.43;3.57;;;21.60;99.90;;;;;;5128408;27;20220;-49
2021/06/20 07:54:30;;;;;;;7.27;3.50;;;21.70;99.90;;;;;;5119812;27;20197;-50
2021/06/20 07:56:56;;;;;;;7.23;3.30;;;21.80;99.90;;;;;;5123932;27;20228;-50
2021/06/20 07:59:24;;;;;;;9.07;3.77;;;21.80;99.90;;;;;;5111478;27;21003;-51
2021/06/20 08:01:51;;;;;;;7.83;3.57;;;22.00;99.90;;;;;;5133349;27;20224;-48
2021/06/20 08:04:17;;;;;;;6.00;3.20;;;22.10;99.90;;;;;;5131179;27;20193;-51
2021/06/20 08:06:45;;;;;;;7.27;3.43;;;22.20;99.90;;;;;;5109674;27;20228;-50
2021/06/20 08:09:11;;;;;;;8.27;3.70;;;22.30;99.90;;;;;;5097448;27;20177;-53
2021/06/20 08:11:38;;;;;;;8.20;3.27;;;22.30;99.90;;;;;;5125339;27;20223;-50
2021/06/20 08:14:05;;;;;;;8.23;3.10;;;22.40;99.90;;;;;;5131193;27;20198;-52
2021/06/20 08:16:34;;;;;;;5.67;2.93;;;22.50;99.90;;;;;;5117070;27;20195;-47
2021/06/20 08:19:00;;;;;;;6.20;3.27;;;22.60;99.90;;;;;;5103339;27;20248;-51
2021/06/20 08:21:27;;;;;;;7.80;3.53;;;22.70;99.90;;;;;;5111985;27;20230;-46
2021/06/20 08:23:54;;;;;;;9.07;3.53;;;22.70;99.90;;;;;;5104060;28;20193;-50
2021/06/20 08:26:20;;;;;;;6.60;3.83;;;22.90;99.90;;;;;;5095700;27;20201;-46
2021/06/20 08:28:47;;;;;;;7.50;3.07;;;23.00;99.90;;;;;;5117910;27;20181;-52
2021/06/20 08:31:14;;;;;;;5.97;3.53;;;23.10;99.90;;;;;;5105751;27;20228;-49
2021/06/20 08:33:42;;;;;;;8.03;3.90;;;23.10;99.90;;;;;;5110969;27;20204;-46
2021/06/20 08:36:09;;;;;;;7.03;3.70;;;23.10;99.90;;;;;;5100929;28;20189;-50
2021/06/20 08:38:36;;;;;;;5.13;3.30;;;23.10;99.90;;;;;;5097144;27;20225;-52
2021/06/20 08:41:03;;;;;;;9.95;3.97;;;23.10;99.90;;;;;;5104214;27;20201;-50
2021/06/20 08:43:30;;;;;;;10.48;4.38;;;23.10;99.90;;;;;;5121797;27;20193;-63
2021/06/20 08:45:57;;;;;;;9.07;3.97;;;23.10;99.90;;;;;;5092559;27;20205;-49
2021/06/20 08:48:24;;;;;;;6.10;3.72;;;23.00;99.90;;;;;;5117163;27;20973;-42
2021/06/20 08:50:53;;;;;;;4.93;3.97;;;23.00;99.90;;;;;;5124305;27;20200;-42
2021/06/20 08:53:21;;;;;;;5.75;3.60;;;23.10;99.90;;;;;;5114853;27;21612;-45
2021/06/20 08:55:48;;;;;;;6.90;3.65;;;23.10;99.90;;;;;;5117013;27;20201;-41
2021/06/20 08:58:22;;;;;;;8.32;3.78;;;23.10;99.90;;;;;;5104676;27;20947;-47
2021/06/20 09:00:49;;;;;;;6.90;3.70;;;23.00;99.90;;;;;;5107935;27;20208;-44
2021/06/20 09:03:16;;;;;;;6.47;3.80;;;23.00;99.90;;;;;;5098052;27;20298;-45
2021/06/20 09:05:58;;;;;;;7.57;3.65;;;23.00;99.90;;;;;;5108045;27;20193;-43
2021/06/20 09:08:26;;;;;;;5.43;3.65;;;23.10;99.90;;;;;;5111575;27;20209;-45
2021/06/20 09:10:54;;;;;;;5.23;3.23;;;23.10;99.90;;;;;;5127127;27;20253;-44
2021/06/20 09:13:21;;;;;;;5.22;3.70;;;23.00;99.90;;;;;;5113756;27;20196;-44
2021/06/20 09:16:00;;;;;;;4.45;3.83;;;23.00;99.90;;;;;;5122674;27;20203;-41
2021/06/20 09:18:26;;;;;;;3.75;3.40;;;23.10;99.90;;;;;;5103043;27;20408;-49
2021/06/20 09:20:53;;;;;;;5.90;3.50;;;23.10;99.90;;;;;;5120247;27;20215;-46
2021/06/20 09:23:21;;;;;;;5.57;4.10;;;23.20;99.90;;;;;;5131337;27;20196;-45
2021/06/20 09:25:55;;;;;;;6.10;4.30;;;23.20;99.90;;;;;;5111719;27;20669;-43
2021/06/20 09:28:21;;;;;;;5.03;4.13;;;23.30;99.90;;;;;;5119274;27;20658;-42
2021/06/20 09:30:50;;;;;;;5.78;4.03;;;23.30;99.90;;;;;;5111815;28;20193;-44
2021/06/20 09:33:17;;;;;;;7.85;4.30;;;23.20;99.90;;;;;;5096248;28;20810;-47
2021/06/20 09:35:46;;;;;;;8.02;4.20;;;23.20;99.90;;;;;;5122461;28;20197;-45
2021/06/20 09:38:18;;;;;;;7.88;4.43;;;23.10;99.90;;;;;;5101768;28;20214;-53
2021/06/20 09:40:46;;;;;;;4.55;4.05;;;23.10;99.90;;;;;;5116119;27;20558;-53
2021/06/20 09:43:14;;;;;;;7.95;3.60;;;23.10;99.90;;;;;;5132743;27;20836;-49
2021/06/20 09:45:44;;;;;;;6.60;4.28;;;23.10;99.90;;;;;;5123283;27;20223;-51
2021/06/20 09:48:24;;;;;;;7.10;4.50;;;23.10;99.90;;;;;;5092397;27;20219;-45
2021/06/20 09:50:52;;;;;;;6.38;4.25;;;23.20;99.90;;;;;;5137748;27;20176;-54
2021/06/20 09:53:30;;;;;;;4.88;4.10;;;23.30;99.90;;;;;;5125405;27;20215;-47
2021/06/20 09:56:19;;;;;;;7.45;5.25;;;23.40;99.90;;;;;;5114804;27;20956;-55
2021/06/20 09:58:47;;;;;;;5.72;4.85;;;23.40;99.90;;;;;;5114875;27;20216;-56
2021/06/20 10:01:15;;;;;;;6.57;5.88;;;23.50;99.90;;;;;;5122525;27;20251;-48
2021/06/20 10:03:43;;;;;;;8.18;5.28;;;23.50;99.90;;;;;;5111746;27;20189;-56
2021/06/20 10:06:11;;;;;;;6.03;5.40;;;23.50;99.90;;;;;;5112981;27;20884;-49
2021/06/20 10:08:38;;;;;;;7.10;4.65;;;23.60;99.90;;;;;;5115622;27;20201;-52
2021/06/20 10:11:05;;;;;;;7.53;5.72;;;23.70;99.90;;;;;;5108622;27;23637;-46
2021/06/20 10:13:33;;;;;;;5.65;4.95;;;23.80;99.90;;;;;;5131311;27;20572;-48
2021/06/20 10:16:15;;;;;;;5.82;5.18;;;23.90;99.90;;;;;;5113618;27;20289;-44
2021/06/20 10:18:48;;;;;;;7.63;5.05;;;23.80;99.90;;;;;;5112272;27;20208;-56
2021/06/20 10:21:14;;;;;;;6.03;5.30;;;23.90;99.90;;;;;;5124159;27;20216;-46
2021/06/20 10:23:41;;;;;;;5.72;5.18;;;24.00;99.90;;;;;;5123732;27;20189;-53
2021/06/20 10:26:09;;;;;;;6.47;5.90;;;24.10;99.90;;;;;;5128125;27;20281;-42
2021/06/20 10:28:37;;;;;;;5.90;5.25;;;24.30;99.90;;;;;;5116331;27;20205;-50
2021/06/20 10:31:09;;;;;;;10.30;5.82;;;24.40;99.90;;;;;;5110180;27;20794;-49
2021/06/20 10:33:37;;;;;;;5.18;4.72;;;24.40;99.90;;;;;;5121606;27;20251;-47
2021/06/20 10:36:09;;;;;;;7.40;5.55;;;24.40;99.90;;;;;;5101501;27;20393;-50
2021/06/20 10:38:37;;;;;;;6.80;6.05;;;24.40;99.90;;;;;;5136857;27;20644;-46
2021/06/20 10:41:05;;;;;;;9.07;5.13;;;24.40;99.90;;;;;;5107839;27;20262;-48
2021/06/20 10:43:31;;;;;;;8.52;5.80;;;24.50;99.90;;;;;;5111312;27;20223;-48
2021/06/20 10:46:00;;;;;;;9.68;6.05;;;24.70;99.90;;;;;;5104016;27;20199;-49
2021/06/20 10:48:34;;;;;;;7.57;5.63;;;24.80;99.90;;;;;;5114880;27;20188;-54
2021/06/20 10:51:01;;;;;;;5.90;5.30;;;24.90;99.90;;;;;;5091178;27;20211;-47
2021/06/20 10:53:29;;;;;;;9.40;5.97;;;24.90;99.90;;;;;;5119079;27;20304;-49
2021/06/20 10:55:57;;;;;;;6.95;5.28;;;24.90;99.90;;;;;;5101953;27;20570;-51
2021/06/20 10:58:25;;;;;;;5.75;5.03;;;24.90;99.90;;;;;;5107731;27;20284;-48
2021/06/20 11:00:54;;;;;;;7.07;5.22;;;25.10;99.90;;;;;;5117294;27;20200;-49
2021/06/20 11:03:27;;;;;;;6.65;5.78;;;25.10;99.90;;;;;;5111812;27;20204;-48
2021/06/20 11:05:56;;;;;;;6.88;5.32;;;25.20;99.90;;;;;;5104853;27;20551;-48
2021/06/20 11:08:34;;;;;;;5.50;4.90;;;25.20;99.90;;;;;;5121013;27;20205;-46
2021/06/20 11:11:17;;;;;;;7.13;5.72;;;25.30;99.90;;;;;;5104716;27;20201;-45
2021/06/20 11:13:46;;;;;;;7.80;6.00;;;25.50;99.90;;;;;;5103769;27;20564;-44
2021/06/20 11:16:22;;;;;;;6.03;5.53;;;25.50;99.90;;;;;;5115980;27;20196;-45
2021/06/20 11:19:08;;;;;;;6.50;5.40;;;25.60;99.90;;;;;;5102787;27;20551;-46
2021/06/20 11:21:35;;;;;;;6.68;6.05;;;25.70;99.90;;;;;;5124840;27;20220;-46
2021/06/20 11:24:03;;;;;;;7.32;5.70;;;25.70;99.90;;;;;;5099071;27;20205;-49
2021/06/20 11:26:29;;;;;;;7.40;5.38;;;25.60;99.90;;;;;;5115996;27;20208;-49
2021/06/20 11:29:00;;;;;;;6.72;5.88;;;25.60;99.90;;;;;;5118029;27;20878;-49
2021/06/20 11:31:27;;;;;;;7.10;5.65;;;25.70;99.90;;;;;;5114352;27;20225;-52
2021/06/20 11:33:57;;;;;;;6.78;6.07;;;25.90;99.90;;;;;;5111713;27;20608;-50
2021/06/20 11:36:26;;;;;;;8.18;5.30;;;26.10;99.90;;;;;;5121402;27;20201;-49
2021/06/20 11:38:53;;;;;;;7.40;5.72;;;26.20;99.90;;;;;;5103652;27;20200;-53
2021/06/20 11:41:21;;;;;;;8.27;5.40;;;26.30;99.90;;;;;;5120850;27;20791;-48
2021/06/20 11:43:54;;;;;;;7.65;6.95;;;26.40;99.90;;;;;;5113049;27;20196;-49
2021/06/20 11:46:22;;;;;;;8.32;6.65;;;26.30;99.90;;;;;;5111491;27;20205;-47
2021/06/20 11:48:53;;;;;;;6.80;6.13;;;26.20;99.90;;;;;;5108498;27;20296;-49
2021/06/20 11:51:36;;;;;;;5.95;5.45;;;26.20;99.90;;;;;;5122212;27;20221;-46
2021/06/20 11:54:23;;;;;;;6.05;5.18;;;26.30;99.90;;;;;;5103979;27;20204;-48
2021/06/20 11:56:52;;;;;;;7.20;5.53;;;26.40;99.40;;;;;;5112812;27;20192;-46
2021/06/20 11:59:30;;;;;;;6.00;5.43;;;26.40;99.10;;;;;;5096920;27;20614;-48
2021/06/20 12:01:57;;;;;;;5.75;5.25;;;26.40;98.90;;;;;;5102327;27;20217;-52
2021/06/20 12:04:26;;;;;;;5.22;4.80;;;26.50;99.10;;;;;;5132250;27;20199;-55
2021/06/20 12:06:55;;;;;;;7.30;4.75;;;26.60;98.70;;;;;;5124055;27;20184;-53
2021/06/20 12:09:24;;;;;;;5.38;4.97;;;26.80;97.90;;;;;;5109963;27;20550;-53
2021/06/20 12:11:59;;;;;;;7.07;4.82;;;26.60;97.20;;;;;;5112224;27;20220;-53
2021/06/20 12:14:28;;;;;;;5.38;4.93;;;26.60;95.70;;;;;;5114333;27;20291;-51
2021/06/20 12:16:56;;;;;;;5.35;4.95;;;26.50;96.50;;;;;;5110487;27;22673;-46
2021/06/20 12:19:24;;;;;;;5.38;4.88;;;26.50;97.10;;;;;;5118832;27;20208;-49
2021/06/20 12:22:02;;;;;;;4.88;4.40;;;26.50;97.00;;;;;;5122683;27;20211;-46
2021/06/20 12:24:37;;;;;;;6.03;4.90;;;26.40;97.30;;;;;;5111147;27;20208;-49
2021/06/20 12:27:04;;;;;;;8.18;5.07;;;26.20;97.20;;;;;;5135883;27;20191;-46
2021/06/20 12:29:32;;;;;;;4.97;4.57;;;26.10;97.50;;;;;;5101608;27;20212;-53
2021/06/20 12:32:01;;;;;;;5.70;5.15;;;26.20;98.70;;;;;;5108423;27;20230;-46
2021/06/20 12:34:39;;;;;;;6.07;5.38;;;26.40;98.00;;;;;;5104592;27;20189;-52
2021/06/20 12:37:05;;;;;;;8.15;5.00;;;26.30;98.50;;;;;;5121086;27;20176;-49
2021/06/20 12:39:41;;;;;;;5.93;5.43;;;26.20;98.80;;;;;;5112499;27;20228;-49
2021/06/20 12:42:09;;;;;;;6.95;4.93;;;26.20;98.50;;;;;;5116308;27;20216;-46
2021/06/20 12:44:40;;;;;;;5.07;4.60;;;26.20;98.70;;;;;;5116948;27;20245;-52